createdAt,value
2023-03-05T00:00:56.929Z,4182.57422
2023-03-05T00:15:59.148Z,4668.39062
2023-03-05T00:31:01.859Z,3726.03711
2023-03-05T00:46:04.294Z,2520.17188
2023-03-05T01:01:06.560Z,1638.54541
2023-03-05T01:16:08.886Z,758.00348
2023-03-05T01:31:11.432Z,251.58342
2023-03-05T01:46:13.838Z,54.22056
2023-03-05T02:01:16.467Z,3.25323
2023-03-05T02:16:18.793Z,0
2023-03-05T02:31:21.229Z,0
2023-03-05T02:46:23.506Z,0
2023-03-05T03:01:25.794Z,0
2023-03-05T03:16:28.134Z,0
2023-03-05T03:31:30.376Z,0
2023-03-05T03:46:32.804Z,0
2023-03-05T04:01:35.062Z,0
2023-03-05T04:16:37.419Z,0
2023-03-05T04:31:39.705Z,0
2023-03-05T04:46:41.933Z,0
2023-03-05T05:01:44.483Z,0
2023-03-05T05:16:46.791Z,0
2023-03-05T05:31:49.029Z,0
2023-03-05T05:46:51.300Z,0
2023-03-05T06:01:53.610Z,0
2023-03-05T06:16:55.993Z,0
2023-03-05T06:31:58.336Z,0
2023-03-05T06:47:00.573Z,0
2023-03-05T07:02:02.885Z,0
2023-03-05T07:17:05.329Z,0
2023-03-05T07:32:07.663Z,0
2023-03-05T07:47:10.051Z,0
2023-03-05T08:02:12.223Z,0
2023-03-05T08:17:14.433Z,0
2023-03-05T08:32:16.754Z,0
2023-03-05T08:47:18.994Z,0
2023-03-05T09:02:21.394Z,0
2023-03-05T09:17:23.677Z,0
2023-03-05T09:32:26.063Z,0
2023-03-05T09:47:28.234Z,0
2023-03-05T10:02:30.437Z,0
2023-03-05T10:17:32.651Z,0
2023-03-05T10:32:34.907Z,0
2023-03-05T10:47:37.291Z,0
2023-03-05T11:02:39.592Z,0
2023-03-05T11:17:41.988Z,0
2023-03-05T11:32:44.232Z,0
2023-03-05T11:47:46.479Z,0
2023-03-05T12:02:48.913Z,0
2023-03-05T12:17:51.229Z,0
2023-03-05T12:32:53.547Z,0
2023-03-05T12:47:55.815Z,0
2023-03-05T13:02:57.978Z,0
2023-03-05T13:18:00.220Z,0
2023-03-05T13:33:02.502Z,0
2023-03-05T13:48:04.754Z,0
2023-03-05T14:03:07.200Z,3.25323
2023-03-05T14:18:09.547Z,35.78557
2023-03-05T14:33:11.784Z,151.81758
2023-03-05T14:48:14.095Z,433.7645
2023-03-05T15:03:16.309Z,811.13965
2023-03-05T15:18:18.549Z,1252.495
2023-03-05T15:33:20.830Z,1564.80542
2023-03-05T15:48:23.012Z,2044.11523
2023-03-05T16:03:25.395Z,2915.98193
2023-03-05T16:18:27.655Z,3973.28296
2023-03-05T16:33:30.010Z,6088.96924
2023-03-05T16:48:32.352Z,5630.26318
2023-03-05T17:03:34.598Z,5517.48438
2023-03-05T17:18:36.849Z,7164.70508
2023-03-05T17:33:39.294Z,7405.44434
2023-03-05T17:48:41.700Z,7143.01709
2023-03-05T18:03:43.963Z,10597.95117
2023-03-05T18:18:46.211Z,12792.7998
2023-03-05T18:33:48.510Z,11501.26562
2023-03-05T18:48:50.985Z,10143.58301
2023-03-05T19:03:53.229Z,9402.92969
2023-03-05T19:18:55.477Z,10602.28906
2023-03-05T19:33:57.805Z,8977.84082
2023-03-05T19:49:00.019Z,9554.74805
2023-03-05T20:04:02.349Z,10069.84277
2023-03-05T20:19:04.621Z,9497.27344
2023-03-05T20:34:06.859Z,9746.68848
2023-03-05T20:49:09.306Z,9918.02539
2023-03-05T21:04:11.544Z,9483.17676
2023-03-05T21:19:13.835Z,9863.80469
2023-03-05T21:34:16.225Z,10724.82715
2023-03-05T21:49:18.495Z,10556.74316
2023-03-05T22:04:20.673Z,9169.78125
2023-03-05T22:19:22.934Z,8814.09473
2023-03-05T22:34:25.163Z,7758.9624
2023-03-05T22:49:27.672Z,7120.24414
2023-03-05T23:04:29.952Z,6412.12402
2023-03-05T23:19:32.365Z,5840.63916
2023-03-05T23:34:34.642Z,4746.46826
2023-03-05T23:49:36.900Z,4370.17725
